createdAt,value
2022-11-06T00:01:47.771Z,6.20
2022-11-06T00:04:15.690Z,6.14
2022-11-06T00:06:48.014Z,6.08
2022-11-06T00:09:17.728Z,6.07
2022-11-06T00:11:45.912Z,5.98
2022-11-06T00:14:15.384Z,5.98
2022-11-06T00:16:44.451Z,6.01
2022-11-06T00:19:12.853Z,6.06
2022-11-06T00:21:40.762Z,6.02
2022-11-06T00:24:09.877Z,5.98
2022-11-06T00:26:37.875Z,5.88
2022-11-06T00:29:06.862Z,5.84
2022-11-06T00:31:38.039Z,5.74
2022-11-06T00:34:07.645Z,5.67
2022-11-06T00:36:36.107Z,5.72
2022-11-06T00:39:04.687Z,5.82
2022-11-06T00:41:32.776Z,5.82
2022-11-06T00:44:02.983Z,5.74
2022-11-06T00:46:31.451Z,5.69
2022-11-06T00:49:00.630Z,5.66
2022-11-06T00:51:30.000Z,5.70
2022-11-06T00:53:59.208Z,5.73
2022-11-06T00:56:27.651Z,5.73
2022-11-06T00:58:56.212Z,5.77
2022-11-06T01:01:25.657Z,5.79
2022-11-06T01:03:57.541Z,5.82
2022-11-06T01:06:29.154Z,5.84
2022-11-06T01:08:57.421Z,5.73
2022-11-06T01:11:41.616Z,5.53
2022-11-06T01:14:19.083Z,5.44
2022-11-06T01:16:47.685Z,5.38
2022-11-06T01:19:17.515Z,5.57
2022-11-06T01:21:50.190Z,5.71
2022-11-06T01:24:20.822Z,5.73
2022-11-06T01:27:19.983Z,5.68
2022-11-06T01:29:37.638Z,5.67
2022-11-06T01:32:06.401Z,5.67
2022-11-06T01:34:34.327Z,5.68
2022-11-06T01:37:03.396Z,5.65
2022-11-06T01:39:31.134Z,5.66
2022-11-06T01:41:59.226Z,5.66
2022-11-06T01:45:06.985Z,5.71
2022-11-06T01:47:34.651Z,5.68
2022-11-06T01:50:06.620Z,5.70
2022-11-06T01:52:36.982Z,5.60
2022-11-06T01:55:10.345Z,5.52
2022-11-06T01:57:38.438Z,5.42
2022-11-06T02:00:07.876Z,5.29
2022-11-06T02:02:37.374Z,5.21
2022-11-06T02:05:06.153Z,5.15
2022-11-06T02:07:35.879Z,5.21
2022-11-06T02:10:04.144Z,5.20
2022-11-06T02:12:43.351Z,5.19
2022-11-06T02:15:19.279Z,5.13
2022-11-06T02:18:02.460Z,5.12
2022-11-06T02:20:36.764Z,5.19
2022-11-06T02:23:26.365Z,5.21
2022-11-06T02:26:04.348Z,5.22
2022-11-06T02:28:38.051Z,5.20
2022-11-06T02:31:11.697Z,5.27
2022-11-06T02:33:45.650Z,5.30
2022-11-06T02:36:17.252Z,5.31
2022-11-06T02:38:49.374Z,5.31
2022-11-06T02:41:21.219Z,5.30
2022-11-06T02:43:54.109Z,5.24
2022-11-06T02:46:27.861Z,5.27
2022-11-06T02:49:01.249Z,5.24
2022-11-06T02:51:31.944Z,5.19
2022-11-06T02:54:04.242Z,5.16
2022-11-06T02:56:36.319Z,5.11
2022-11-06T02:59:10.226Z,5.12
2022-11-06T03:01:41.248Z,5.08
2022-11-06T03:04:17.434Z,5.08
2022-11-06T03:06:49.641Z,4.99
2022-11-06T03:09:21.797Z,5.03
2022-11-06T03:11:58.648Z,4.97
2022-11-06T03:14:33.151Z,4.99
2022-11-06T03:17:06.893Z,5.05
2022-11-06T03:19:50.282Z,4.93
2022-11-06T03:22:27.891Z,4.89
2022-11-06T03:25:01.511Z,4.86
2022-11-06T03:27:35.361Z,4.93
2022-11-06T03:30:08.864Z,4.83
2022-11-06T03:32:41.265Z,4.76
2022-11-06T03:35:14.057Z,4.88
2022-11-06T03:37:48.977Z,4.97
2022-11-06T03:40:20.683Z,5.09
2022-11-06T03:42:52.682Z,5.13
2022-11-06T03:45:24.587Z,5.18
2022-11-06T03:47:57.546Z,5.19
2022-11-06T03:50:31.342Z,5.21
2022-11-06T03:53:04.960Z,5.25
2022-11-06T03:55:37.907Z,5.25
2022-11-06T03:58:11.227Z,5.27
2022-11-06T04:00:43.156Z,5.28
2022-11-06T04:03:18.618Z,5.31
2022-11-06T04:05:52.647Z,5.32
2022-11-06T04:08:40.801Z,5.32
2022-11-06T04:11:33.575Z,5.24
2022-11-06T04:14:02.529Z,5.22
2022-11-06T04:16:35.835Z,5.21
2022-11-06T04:19:03.861Z,5.18
2022-11-06T04:21:49.321Z,5.12
2022-11-06T04:24:48.758Z,5.15
2022-11-06T04:27:27.647Z,5.19
2022-11-06T04:30:08.389Z,5.21
2022-11-06T04:33:07.208Z,5.20
2022-11-06T04:35:49.285Z,5.21
2022-11-06T04:38:26.870Z,5.30
2022-11-06T04:41:07.735Z,5.38
2022-11-06T04:43:44.940Z,5.43
2022-11-06T04:46:18.634Z,5.43
2022-11-06T04:48:48.779Z,5.40
2022-11-06T04:51:19.904Z,5.38
2022-11-06T04:53:51.019Z,5.38
2022-11-06T04:56:25.780Z,5.46
2022-11-06T04:58:53.730Z,5.36
2022-11-06T05:01:21.512Z,5.35
2022-11-06T05:03:50.561Z,5.42
2022-11-06T05:06:18.352Z,5.35
2022-11-06T05:08:46.116Z,5.37
2022-11-06T05:11:14.009Z,5.44
2022-11-06T05:13:41.740Z,5.46
2022-11-06T05:16:09.445Z,5.49
2022-11-06T05:18:37.416Z,5.51
2022-11-06T05:21:24.176Z,5.51
2022-11-06T05:23:52.377Z,5.50
2022-11-06T05:26:20.027Z,5.47
2022-11-06T05:28:47.713Z,5.45
2022-11-06T05:31:15.380Z,5.46
2022-11-06T05:33:43.114Z,5.47
2022-11-06T05:36:12.114Z,5.47
2022-11-06T05:38:39.826Z,5.45
2022-11-06T05:41:07.452Z,5.45
2022-11-06T05:43:35.742Z,5.47
2022-11-06T05:46:03.440Z,5.42
2022-11-06T05:48:31.424Z,5.41
2022-11-06T05:51:01.863Z,5.36
2022-11-06T05:53:31.314Z,5.37
2022-11-06T05:55:59.126Z,5.33
2022-11-06T05:58:27.461Z,5.34
2022-11-06T06:00:55.573Z,5.32
2022-11-06T06:03:23.870Z,5.35
2022-11-06T06:05:52.049Z,5.36
2022-11-06T06:08:20.005Z,5.38
2022-11-06T06:10:49.832Z,5.37
2022-11-06T06:13:17.794Z,5.42
2022-11-06T06:15:46.482Z,5.36
2022-11-06T06:18:14.530Z,5.37
2022-11-06T06:20:42.361Z,5.42
2022-11-06T06:23:11.064Z,5.34
2022-11-06T06:25:38.756Z,5.32
2022-11-06T06:28:07.762Z,5.31
2022-11-06T06:30:35.992Z,5.24
2022-11-06T06:33:06.284Z,5.10
2022-11-06T06:35:34.013Z,5.10
2022-11-06T06:38:01.660Z,5.08
2022-11-06T06:40:29.968Z,5.07
2022-11-06T06:42:58.153Z,5.03
2022-11-06T06:45:27.769Z,5.01
2022-11-06T06:47:55.467Z,5.04
2022-11-06T06:50:23.162Z,5.05
2022-11-06T06:52:50.817Z,5.04
2022-11-06T06:55:18.456Z,5.02
2022-11-06T06:57:46.134Z,5.01
2022-11-06T07:00:14.413Z,5.09
2022-11-06T07:02:43.374Z,5.10
2022-11-06T07:05:11.218Z,5.02
2022-11-06T07:07:38.917Z,5.12
2022-11-06T07:10:07.712Z,5.12
2022-11-06T07:12:35.580Z,5.04
2022-11-06T07:15:03.288Z,5.06
2022-11-06T07:17:30.911Z,5.03
2022-11-06T07:19:59.888Z,5.13
2022-11-06T07:22:35.418Z,5.19
2022-11-06T07:25:05.591Z,5.22
2022-11-06T07:27:33.473Z,5.32
2022-11-06T07:30:01.435Z,5.29
2022-11-06T07:32:29.054Z,5.30
2022-11-06T07:34:57.029Z,5.33
2022-11-06T07:37:26.141Z,5.35
2022-11-06T07:39:53.887Z,5.38
2022-11-06T07:42:21.585Z,5.38
2022-11-06T07:45:03.756Z,5.32
2022-11-06T07:47:31.923Z,5.37
2022-11-06T07:50:00.070Z,5.52
2022-11-06T07:52:29.162Z,5.64
2022-11-06T07:54:56.862Z,5.62
2022-11-06T07:57:24.663Z,5.40
2022-11-06T07:59:52.413Z,5.37
2022-11-06T08:02:20.980Z,5.21
2022-11-06T08:04:48.755Z,5.35
2022-11-06T08:07:16.717Z,5.23
2022-11-06T08:09:45.828Z,5.31
2022-11-06T08:12:14.516Z,5.42
2022-11-06T08:14:42.252Z,5.44
2022-11-06T08:17:10.866Z,5.69
2022-11-06T08:19:38.563Z,5.82
2022-11-06T08:22:06.329Z,5.89
2022-11-06T08:24:34.335Z,5.97
2022-11-06T08:27:03.382Z,6.00
2022-11-06T08:29:31.417Z,6.07
2022-11-06T08:31:59.118Z,6.04
2022-11-06T08:34:26.935Z,6.19
2022-11-06T08:36:55.031Z,6.26
2022-11-06T08:39:22.720Z,6.18
2022-11-06T08:41:50.715Z,6.38
2022-11-06T08:44:20.126Z,6.41
2022-11-06T08:46:52.123Z,6.48
2022-11-06T08:49:20.464Z,6.42
2022-11-06T08:51:48.388Z,6.38
2022-11-06T08:54:16.261Z,6.51
2022-11-06T08:56:44.005Z,6.50
2022-11-06T08:59:12.335Z,6.57
2022-11-06T09:01:41.513Z,6.61
2022-11-06T09:04:09.598Z,6.58
2022-11-06T09:06:37.571Z,6.54
2022-11-06T09:09:05.645Z,6.66
2022-11-06T09:11:33.513Z,6.64
2022-11-06T09:14:01.346Z,6.75
2022-11-06T09:16:29.155Z,6.76
2022-11-06T09:18:58.909Z,7.12
2022-11-06T09:21:26.714Z,7.51
2022-11-06T09:23:54.508Z,7.37
2022-11-06T09:26:22.187Z,7.39
2022-11-06T09:28:51.127Z,7.40
2022-11-06T09:31:18.853Z,7.59
2022-11-06T09:33:46.880Z,7.55
2022-11-06T09:36:16.442Z,7.56
2022-11-06T09:38:44.110Z,7.54
2022-11-06T09:41:19.540Z,7.69
2022-11-06T09:44:06.192Z,7.64
2022-11-06T09:46:40.023Z,7.68
2022-11-06T09:49:16.270Z,7.76
2022-11-06T09:51:52.804Z,7.82
2022-11-06T09:54:25.361Z,7.76
2022-11-06T09:57:06.509Z,7.78
2022-11-06T09:59:37.953Z,7.86
2022-11-06T10:02:21.367Z,8.00
2022-11-06T10:04:56.541Z,8.04
2022-11-06T10:07:30.093Z,8.15
2022-11-06T10:09:58.433Z,8.15
2022-11-06T10:12:42.366Z,8.16
2022-11-06T10:15:20.817Z,8.30
2022-11-06T10:17:56.122Z,8.30
2022-11-06T10:20:31.784Z,8.49
2022-11-06T10:23:06.575Z,8.43
2022-11-06T10:26:05.277Z,8.53
2022-11-06T10:28:47.533Z,8.56
2022-11-06T10:31:24.684Z,8.77
2022-11-06T10:33:58.797Z,8.67
2022-11-06T10:36:32.381Z,8.75
2022-11-06T10:39:04.747Z,8.86
2022-11-06T10:41:37.861Z,8.91
2022-11-06T10:44:09.236Z,9.09
2022-11-06T10:46:40.828Z,9.14
2022-11-06T10:49:17.900Z,9.21
2022-11-06T10:51:59.624Z,9.21
2022-11-06T10:54:43.738Z,9.35
2022-11-06T10:57:29.629Z,9.37
2022-11-06T10:59:57.453Z,9.50
2022-11-06T11:02:29.525Z,9.57
2022-11-06T11:04:58.418Z,9.49
2022-11-06T11:07:30.238Z,9.63
2022-11-06T11:10:02.214Z,9.79
2022-11-06T11:12:33.068Z,9.79
2022-11-06T11:15:12.910Z,9.85
2022-11-06T11:17:42.094Z,9.76
2022-11-06T11:20:32.787Z,9.68
2022-11-06T11:23:16.815Z,9.70
2022-11-06T11:25:48.622Z,9.75
2022-11-06T11:28:26.570Z,9.68
2022-11-06T11:30:56.863Z,9.44
2022-11-06T11:33:27.119Z,9.68
2022-11-06T11:35:55.430Z,9.90
2022-11-06T11:38:23.971Z,10.14
2022-11-06T11:40:53.393Z,10.30
2022-11-06T11:43:27.296Z,10.68
2022-11-06T11:46:18.099Z,10.72
2022-11-06T11:48:48.388Z,10.74
2022-11-06T11:51:28.561Z,10.72
2022-11-06T11:53:59.911Z,10.77
2022-11-06T11:57:02.359Z,10.57
2022-11-06T11:59:21.647Z,10.50
2022-11-06T12:01:50.492Z,10.79
2022-11-06T12:04:22.894Z,10.87
2022-11-06T12:06:57.904Z,10.70
2022-11-06T12:09:27.113Z,10.58
2022-11-06T12:11:59.092Z,10.56
2022-11-06T12:14:33.864Z,10.52
2022-11-06T12:17:16.412Z,10.36
2022-11-06T12:19:50.828Z,10.27
2022-11-06T12:22:28.094Z,10.19
2022-11-06T12:25:03.023Z,10.26
2022-11-06T12:27:38.110Z,10.15
2022-11-06T12:30:08.058Z,10.21
2022-11-06T12:32:46.990Z,10.17
2022-11-06T12:35:22.348Z,10.23
2022-11-06T12:37:59.258Z,10.21
2022-11-06T12:40:31.058Z,10.17
2022-11-06T12:43:11.617Z,10.17
2022-11-06T12:45:51.080Z,10.13
2022-11-06T12:48:33.840Z,10.23
2022-11-06T12:51:11.214Z,10.24
2022-11-06T12:53:51.894Z,10.23
2022-11-06T12:56:26.302Z,10.14
2022-11-06T12:59:10.686Z,10.11
2022-11-06T13:01:46.126Z,10.01
2022-11-06T13:04:35.702Z,10.06
2022-11-06T13:07:39.857Z,10.08
2022-11-06T13:10:23.507Z,10.06
2022-11-06T13:13:04.102Z,10.06
2022-11-06T13:15:39.746Z,10.07
2022-11-06T13:18:15.403Z,10.08
2022-11-06T13:20:50.845Z,10.02
2022-11-06T13:23:26.419Z,10.02
2022-11-06T13:26:01.817Z,9.99
2022-11-06T13:28:35.241Z,10.02
2022-11-06T13:31:09.269Z,9.90
2022-11-06T13:33:43.450Z,9.85
2022-11-06T13:36:12.267Z,9.85
2022-11-06T13:38:44.165Z,9.74
2022-11-06T13:41:16.581Z,9.75
2022-11-06T13:43:46.960Z,9.84
2022-11-06T13:46:26.981Z,9.85
2022-11-06T13:49:07.897Z,9.84
2022-11-06T13:51:45.549Z,9.85
2022-11-06T13:54:23.708Z,9.81
2022-11-06T13:57:16.850Z,9.81
2022-11-06T14:00:10.447Z,9.84
2022-11-06T14:03:06.716Z,9.82
2022-11-06T14:05:49.425Z,9.78
2022-11-06T14:08:22.481Z,9.78
2022-11-06T14:10:57.088Z,9.76
2022-11-06T14:13:27.833Z,9.76
2022-11-06T14:16:04.519Z,9.77
2022-11-06T14:18:34.717Z,9.81
2022-11-06T14:21:44.788Z,9.76
2022-11-06T14:24:31.202Z,9.72
2022-11-06T14:26:59.888Z,9.65
2022-11-06T14:29:58.778Z,9.69
2022-11-06T14:32:46.071Z,9.69
2022-11-06T14:35:52.511Z,9.74
2022-11-06T14:38:33.811Z,9.71
2022-11-06T14:41:02.487Z,9.65
2022-11-06T14:43:33.270Z,9.62
2022-11-06T14:46:05.183Z,9.55
2022-11-06T14:48:36.814Z,9.54
2022-11-06T14:51:07.508Z,9.33
2022-11-06T14:53:46.081Z,9.32
2022-11-06T14:56:22.602Z,9.34
2022-11-06T14:58:55.853Z,9.35
2022-11-06T15:01:28.670Z,9.28
2022-11-06T15:03:59.176Z,9.25
2022-11-06T15:06:44.052Z,9.25
2022-11-06T15:09:15.745Z,9.26
2022-11-06T15:11:56.024Z,9.27
2022-11-06T15:14:57.209Z,9.26
2022-11-06T15:17:33.341Z,9.24
2022-11-06T15:20:14.768Z,9.20
2022-11-06T15:22:48.617Z,9.17
2022-11-06T15:25:27.580Z,9.12
2022-11-06T15:28:04.269Z,9.12
2022-11-06T15:30:41.376Z,9.14
2022-11-06T15:33:15.596Z,9.13
2022-11-06T15:35:47.168Z,9.12
2022-11-06T15:38:18.605Z,9.11
2022-11-06T15:40:50.251Z,9.09
2022-11-06T15:43:26.339Z,9.06
2022-11-06T15:46:21.409Z,9.05
2022-11-06T15:48:50.423Z,9.02
2022-11-06T15:51:24.099Z,9.03
2022-11-06T15:53:52.082Z,8.99
2022-11-06T15:56:25.243Z,8.88
2022-11-06T15:59:08.832Z,8.77
2022-11-06T16:01:37.449Z,8.74
2022-11-06T16:04:15.763Z,8.72
2022-11-06T16:06:45.412Z,8.68
2022-11-06T16:09:19.209Z,8.66
2022-11-06T16:11:51.362Z,8.69
2022-11-06T16:14:20.343Z,8.63
2022-11-06T16:16:50.306Z,8.56
2022-11-06T16:19:25.185Z,8.56
2022-11-06T16:21:57.190Z,8.60
2022-11-06T16:24:28.853Z,8.67
2022-11-06T16:26:58.123Z,8.73
2022-11-06T16:29:28.680Z,8.75
2022-11-06T16:32:01.920Z,8.76
2022-11-06T16:34:39.070Z,8.76
2022-11-06T16:37:29.448Z,8.78
2022-11-06T16:39:59.386Z,8.78
2022-11-06T16:42:30.692Z,8.80
2022-11-06T16:45:03.352Z,8.79
2022-11-06T16:47:31.159Z,8.78
2022-11-06T16:50:01.770Z,8.80
2022-11-06T16:52:31.262Z,8.86
2022-11-06T16:55:02.064Z,8.91
2022-11-06T16:57:34.941Z,8.92
2022-11-06T17:00:05.612Z,8.94
2022-11-06T17:02:37.446Z,8.97
2022-11-06T17:05:11.727Z,8.98
2022-11-06T17:07:40.232Z,8.96
2022-11-06T17:10:38.272Z,8.89
2022-11-06T17:13:16.093Z,8.89
2022-11-06T17:15:46.404Z,8.90
2022-11-06T17:18:20.589Z,9.01
2022-11-06T17:20:53.039Z,9.08
2022-11-06T17:23:27.119Z,9.01
2022-11-06T17:25:59.145Z,8.91
2022-11-06T17:28:28.361Z,8.84
2022-11-06T17:30:56.678Z,8.85
2022-11-06T17:33:24.554Z,8.90
2022-11-06T17:35:52.216Z,9.03
2022-11-06T17:38:19.914Z,8.97
2022-11-06T17:40:47.684Z,8.97
2022-11-06T17:43:16.267Z,8.88
2022-11-06T17:45:48.011Z,8.91
2022-11-06T17:48:15.770Z,9.19
2022-11-06T17:51:01.251Z,9.09
2022-11-06T17:53:29.182Z,9.23
2022-11-06T17:55:57.143Z,9.32
2022-11-06T17:58:24.849Z,9.25
2022-11-06T18:00:53.844Z,9.22
2022-11-06T18:03:23.680Z,9.23
2022-11-06T18:05:51.753Z,9.48
2022-11-06T18:08:19.628Z,9.44
2022-11-06T18:10:54.709Z,9.24
2022-11-06T18:13:22.407Z,9.32
2022-11-06T18:15:50.077Z,9.32
2022-11-06T18:18:19.182Z,9.35
2022-11-06T18:20:48.317Z,9.36
2022-11-06T18:23:16.049Z,9.23
2022-11-06T18:25:44.606Z,9.21
2022-11-06T18:28:12.386Z,9.44
2022-11-06T18:30:40.099Z,9.23
2022-11-06T18:33:07.935Z,9.27
2022-11-06T18:35:36.918Z,9.31
2022-11-06T18:38:04.626Z,9.22
2022-11-06T18:40:32.370Z,9.22
2022-11-06T18:43:00.014Z,9.51
2022-11-06T18:45:27.686Z,9.40
2022-11-06T18:47:55.337Z,9.25
2022-11-06T18:50:22.965Z,9.18
2022-11-06T18:52:57.926Z,9.15
2022-11-06T18:55:26.160Z,9.08
2022-11-06T18:57:54.678Z,9.10
2022-11-06T19:00:23.372Z,9.17
2022-11-06T19:02:52.941Z,9.30
2022-11-06T19:05:21.371Z,9.13
2022-11-06T19:07:52.887Z,9.18
2022-11-06T19:10:24.156Z,9.10
2022-11-06T19:12:51.906Z,9.11
2022-11-06T19:15:19.588Z,9.05
2022-11-06T19:17:47.486Z,8.94
2022-11-06T19:20:15.588Z,8.89
2022-11-06T19:22:43.396Z,8.80
2022-11-06T19:25:11.124Z,8.77
2022-11-06T19:27:40.235Z,8.73
2022-11-06T19:30:09.448Z,8.79
2022-11-06T19:32:37.700Z,8.73
2022-11-06T19:35:06.200Z,8.66
2022-11-06T19:37:34.074Z,8.72
2022-11-06T19:40:06.036Z,8.66
2022-11-06T19:42:35.003Z,8.68
2022-11-06T19:45:05.553Z,8.70
2022-11-06T19:47:33.289Z,8.72
2022-11-06T19:50:01.669Z,8.71
2022-11-06T19:52:42.895Z,8.73
2022-11-06T19:55:27.102Z,8.69
2022-11-06T19:57:55.812Z,8.74
2022-11-06T20:00:24.939Z,8.76
2022-11-06T20:02:52.785Z,8.74
2022-11-06T20:05:20.550Z,8.70
2022-11-06T20:07:48.313Z,8.67
2022-11-06T20:10:16.837Z,8.60
2022-11-06T20:12:44.676Z,8.58
2022-11-06T20:15:12.371Z,8.48
2022-11-06T20:17:41.526Z,8.40
2022-11-06T20:20:10.606Z,8.35
2022-11-06T20:22:38.505Z,8.37
2022-11-06T20:25:07.028Z,8.33
2022-11-06T20:27:34.791Z,8.29
2022-11-06T20:30:03.010Z,8.26
2022-11-06T20:32:30.836Z,8.19
2022-11-06T20:35:00.310Z,8.21
2022-11-06T20:37:28.123Z,8.31
2022-11-06T20:39:56.071Z,8.31
2022-11-06T20:42:24.441Z,8.34
2022-11-06T20:44:52.150Z,8.42
2022-11-06T20:47:19.856Z,8.48
2022-11-06T20:49:47.557Z,8.57
2022-11-06T20:52:16.665Z,8.62
2022-11-06T20:54:47.448Z,8.45
2022-11-06T20:57:15.927Z,8.31
2022-11-06T20:59:43.944Z,8.40
2022-11-06T21:02:12.309Z,8.41
2022-11-06T21:04:40.169Z,8.45
2022-11-06T21:07:07.907Z,8.44
2022-11-06T21:09:37.325Z,8.54
2022-11-06T21:12:05.470Z,8.66
2022-11-06T21:14:33.807Z,8.57
2022-11-06T21:17:02.304Z,8.62
2022-11-06T21:19:30.228Z,8.61
2022-11-06T21:21:58.465Z,8.68
2022-11-06T21:24:26.406Z,8.71
2022-11-06T21:26:56.320Z,8.62
2022-11-06T21:29:25.966Z,8.59
2022-11-06T21:31:54.489Z,8.51
2022-11-06T21:34:22.432Z,8.52
2022-11-06T21:36:50.282Z,8.48
2022-11-06T21:39:20.044Z,8.53
2022-11-06T21:41:48.284Z,8.51
2022-11-06T21:44:19.032Z,8.56
2022-11-06T21:46:47.184Z,8.54
2022-11-06T21:49:15.431Z,8.44
2022-11-06T21:51:43.161Z,8.33
2022-11-06T21:54:29.512Z,8.30
2022-11-06T21:56:57.565Z,8.42
2022-11-06T21:59:28.808Z,8.40
2022-11-06T22:01:57.167Z,8.40
2022-11-06T22:04:25.118Z,8.44
2022-11-06T22:06:53.256Z,8.47
2022-11-06T22:09:25.191Z,8.50
2022-11-06T22:11:54.359Z,8.53
2022-11-06T22:14:22.560Z,8.56
2022-11-06T22:16:51.983Z,8.59
2022-11-06T22:19:20.493Z,8.55
2022-11-06T22:21:48.167Z,8.55
2022-11-06T22:24:16.468Z,8.57
2022-11-06T22:26:44.357Z,8.56
2022-11-06T22:29:14.777Z,8.59
2022-11-06T22:31:43.264Z,8.59
2022-11-06T22:34:13.435Z,8.61
2022-11-06T22:36:42.088Z,8.63
2022-11-06T22:39:11.415Z,8.68
2022-11-06T22:41:39.495Z,8.74
2022-11-06T22:44:08.188Z,8.78
2022-11-06T22:46:36.256Z,8.79
2022-11-06T22:49:04.963Z,8.82
2022-11-06T22:51:34.777Z,8.85
2022-11-06T22:54:03.150Z,8.87
2022-11-06T22:56:31.681Z,8.88
2022-11-06T22:59:01.242Z,8.85
2022-11-06T23:01:31.338Z,8.87
2022-11-06T23:04:00.987Z,8.88
2022-11-06T23:06:28.760Z,8.89
2022-11-06T23:08:57.934Z,8.91
2022-11-06T23:11:27.454Z,8.93
2022-11-06T23:13:56.357Z,8.98
2022-11-06T23:16:40.478Z,8.94
2022-11-06T23:19:08.361Z,9.04
2022-11-06T23:21:36.049Z,9.05
2022-11-06T23:24:06.445Z,8.95
2022-11-06T23:26:34.624Z,8.90
2022-11-06T23:29:03.302Z,8.85
2022-11-06T23:31:30.921Z,8.80
2022-11-06T23:33:58.632Z,8.78
2022-11-06T23:36:26.601Z,8.80
2022-11-06T23:38:54.865Z,8.86
2022-11-06T23:41:41.571Z,8.86
2022-11-06T23:44:29.633Z,8.87
2022-11-06T23:46:57.216Z,8.92
2022-11-06T23:49:25.479Z,8.94
2022-11-06T23:51:53.315Z,8.95
2022-11-06T23:54:20.989Z,8.96
2022-11-06T23:56:50.043Z,8.98
2022-11-06T23:59:17.820Z,9.01
